UAAH/BXH METAR and TAF weather

Enter ICAO airport designator
Station Type Date Time Source
UAAH METAR 2021/09/23 12:30 UTC NOAA

UAAH 231230Z 20003MPS CAVOK 15/00 Q1017 R23/0///60 NOSIG RMK QFE724/0966


Station Type Date Time Source
UAAH Decoded METAR 2021/09/23 12:30 UTC NOAA

Station name not available
Sep 23, 2021 - 08:30 AM EDT / 2021.09.23 1230 UTC
Wind: from the SSW (200 degrees) at 7 MPH (6 KT):0
Visibility: greater than 7 mile(s):0
Temperature: 59 F (15 C)
Dew Point: 32 F (0 C)
Relative Humidity: 35%
Pressure (altimeter): 30.03 in. Hg (1017 hPa)
ob: UAAH 231230Z 20003MPS CAVOK 15/00 Q1017 R23/0///60 NOSIG RMK QFE724/0966
cycle: 12

Station Type Date Time Source
UAAH TAF 2021/05/11 09:06 UTC NOAA

TAF
AMD TAF
AMD UAAH 111100Z 1109/1218 CNL

Example: see airport list